Time;durP1;ratioP1;P1;durP2;ratioP2;P2;SDS_P1;SDS_P2;PMS_P1;PMS_P2;Temp;Humidity;BMP_temperature;BMP_pressure;BME280_temperature;BME280_humidity;BME280_pressure;Samples;Min_cycle;Max_cycle;Signal;HPM_P1;HPM_P2
2022/07/05 00:00:43;;;;;;;4.82;2.22;;;15.70;99.00;;;;;;5003351;28;20221;-43
2022/07/05 00:03:08;;;;;;;5.78;2.20;;;15.50;98.70;;;;;;5004719;28;20101;-45
2022/07/05 00:05:35;;;;;;;3.65;2.40;;;15.40;99.10;;;;;;5000372;28;20133;-43
2022/07/05 00:08:01;;;;;;;4.47;2.53;;;15.30;99.40;;;;;;5005517;28;20034;-46
2022/07/05 00:10:27;;;;;;;4.57;1.90;;;15.30;99.90;;;;;;5002416;28;20036;-46
2022/07/05 00:12:52;;;;;;;4.68;2.20;;;15.20;99.90;;;;;;5006094;28;20041;-44
2022/07/05 00:15:18;;;;;;;2.85;1.98;;;15.30;99.90;;;;;;5001857;28;20150;-42
2022/07/05 00:17:44;;;;;;;5.97;2.90;;;15.30;99.90;;;;;;5004955;28;20042;-43
2022/07/05 00:20:10;;;;;;;4.85;2.17;;;15.30;99.90;;;;;;5000254;28;20105;-45
2022/07/05 00:22:36;;;;;;;5.65;3.03;;;15.30;99.90;;;;;;5001274;28;20049;-48
2022/07/05 00:25:01;;;;;;;5.22;2.83;;;15.30;99.90;;;;;;4998190;28;20510;-46
2022/07/05 00:27:27;;;;;;;4.05;2.75;;;15.20;99.90;;;;;;5003462;28;20057;-44
2022/07/05 00:29:53;;;;;;;4.13;2.80;;;15.20;99.90;;;;;;5002112;28;20220;-44
2022/07/05 00:32:18;;;;;;;4.32;2.90;;;15.20;99.90;;;;;;5003179;28;20041;-44
2022/07/05 00:34:44;;;;;;;3.38;2.03;;;15.00;99.90;;;;;;5002162;28;20045;-44
2022/07/05 00:37:10;;;;;;;4.07;2.97;;;14.90;99.90;;;;;;5001354;28;20046;-42
2022/07/05 00:39:35;;;;;;;3.50;2.72;;;14.90;99.90;;;;;;5002110;28;20487;-45
2022/07/05 00:42:02;;;;;;;3.67;2.40;;;14.90;99.90;;;;;;5000267;28;20042;-46
2022/07/05 00:44:35;;;;;;;4.13;2.90;;;14.90;99.90;;;;;;5001893;28;20469;-44
2022/07/05 00:47:05;;;;;;;4.15;2.70;;;15.00;99.90;;;;;;5004769;28;20053;-47
2022/07/05 00:49:33;;;;;;;4.20;2.97;;;15.00;99.90;;;;;;5002739;28;20124;-45
2022/07/05 00:51:59;;;;;;;3.40;2.60;;;15.00;99.90;;;;;;5003653;28;20116;-44
2022/07/05 00:54:31;;;;;;;2.85;2.33;;;15.00;99.90;;;;;;5003243;28;20111;-45
2022/07/05 00:56:58;;;;;;;4.40;2.40;;;14.90;99.90;;;;;;5001616;28;20409;-48
2022/07/05 00:59:24;;;;;;;3.97;2.72;;;14.90;99.90;;;;;;4999993;28;20041;-44
2022/07/05 01:01:49;;;;;;;6.47;2.95;;;14.90;99.90;;;;;;5003788;28;20033;-43
2022/07/05 01:04:15;;;;;;;4.75;2.85;;;14.80;99.90;;;;;;4999603;28;20410;-44
2022/07/05 01:06:44;;;;;;;3.92;2.63;;;14.80;99.90;;;;;;5004824;28;20049;-50
2022/07/05 01:09:15;;;;;;;3.05;2.33;;;14.80;99.90;;;;;;5003491;28;20034;-46
2022/07/05 01:11:45;;;;;;;3.53;2.10;;;14.80;99.90;;;;;;5003694;28;20395;-57
2022/07/05 01:14:17;;;;;;;5.07;2.65;;;14.70;99.90;;;;;;5000990;28;20049;-62
2022/07/05 01:16:44;;;;;;;4.97;3.00;;;14.60;99.90;;;;;;4994724;28;20053;-53
2022/07/05 01:19:11;;;;;;;4.47;2.45;;;14.50;99.90;;;;;;5001519;28;20060;-43
2022/07/05 01:21:42;;;;;;;4.65;2.80;;;14.40;99.90;;;;;;5002483;28;20108;-44
2022/07/05 01:24:19;;;;;;;4.63;2.55;;;14.40;99.90;;;;;;5002392;28;20052;-44
2022/07/05 01:26:49;;;;;;;5.10;2.85;;;14.50;99.90;;;;;;5001427;28;20038;-44
2022/07/05 01:29:15;;;;;;;4.28;2.70;;;14.40;99.90;;;;;;5001096;28;20503;-46
2022/07/05 01:31:41;;;;;;;5.47;3.33;;;14.40;99.90;;;;;;5002548;28;20045;-43
2022/07/05 01:34:08;;;;;;;4.95;2.60;;;14.40;99.90;;;;;;5007474;28;20050;-48
2022/07/05 01:36:34;;;;;;;4.45;2.85;;;14.40;99.90;;;;;;4988701;28;20037;-45
2022/07/05 01:39:02;;;;;;;4.65;2.83;;;14.40;99.90;;;;;;5003867;28;20037;-44
2022/07/05 01:41:28;;;;;;;3.33;2.45;;;14.30;99.90;;;;;;5003313;28;20049;-44
2022/07/05 01:43:54;;;;;;;3.60;2.63;;;14.20;99.90;;;;;;5007370;28;20435;-43
2022/07/05 01:46:22;;;;;;;3.58;2.78;;;14.20;99.90;;;;;;5006704;28;20042;-43
2022/07/05 01:48:51;;;;;;;5.90;3.20;;;14.10;99.90;;;;;;5004250;28;20602;-43
2022/07/05 01:51:22;;;;;;;4.85;2.67;;;14.10;99.90;;;;;;5003373;28;20030;-43
2022/07/05 01:53:51;;;;;;;5.30;2.80;;;14.10;99.90;;;;;;5003532;28;20403;-43
2022/07/05 01:56:17;;;;;;;4.63;2.72;;;14.10;99.90;;;;;;5003474;28;20048;-43
2022/07/05 01:58:44;;;;;;;5.63;3.00;;;14.10;99.90;;;;;;5006918;28;20406;-43
2022/07/05 02:01:09;;;;;;;5.07;2.88;;;14.10;99.90;;;;;;5005969;28;20544;-44
2022/07/05 02:03:36;;;;;;;4.20;3.03;;;14.00;99.90;;;;;;5008045;28;20126;-43
2022/07/05 02:06:02;;;;;;;4.65;2.65;;;13.90;99.90;;;;;;5005119;28;20133;-45
2022/07/05 02:08:30;;;;;;;3.88;2.55;;;13.80;99.90;;;;;;5005742;28;20141;-43
2022/07/05 02:10:57;;;;;;;7.20;3.25;;;13.80;99.90;;;;;;5007710;28;20034;-44
2022/07/05 02:13:22;;;;;;;4.78;2.97;;;13.80;99.90;;;;;;5005691;28;20087;-44
2022/07/05 02:15:48;;;;;;;5.03;3.00;;;13.70;99.90;;;;;;5000214;28;20042;-44
2022/07/05 02:18:14;;;;;;;5.55;3.10;;;13.70;99.90;;;;;;5008149;28;20132;-46
2022/07/05 02:20:40;;;;;;;4.28;2.70;;;13.70;99.90;;;;;;5009337;28;20125;-45
2022/07/05 02:23:07;;;;;;;4.43;3.00;;;13.70;99.90;;;;;;5002852;28;20045;-47
2022/07/05 02:25:33;;;;;;;6.72;3.60;;;13.60;99.90;;;;;;5007877;28;20041;-43
2022/07/05 02:27:59;;;;;;;5.63;3.33;;;13.50;99.90;;;;;;5002592;28;20329;-46
2022/07/05 02:30:25;;;;;;;4.47;2.75;;;13.40;99.90;;;;;;5007683;28;20116;-49
2022/07/05 02:32:50;;;;;;;3.55;2.70;;;13.30;99.90;;;;;;5005840;28;20148;-43
2022/07/05 02:35:16;;;;;;;4.10;3.00;;;13.30;99.90;;;;;;5003199;28;20073;-44
2022/07/05 02:37:42;;;;;;;3.05;2.20;;;13.30;99.90;;;;;;5007881;28;20096;-43
2022/07/05 02:40:13;;;;;;;5.97;2.92;;;13.40;99.90;;;;;;5001290;28;20050;-46
2022/07/05 02:42:39;;;;;;;5.07;2.78;;;13.50;99.90;;;;;;4999448;28;20496;-45
2022/07/05 02:45:06;;;;;;;3.50;2.55;;;13.50;99.90;;;;;;5002183;28;20498;-44
2022/07/05 02:47:33;;;;;;;3.70;2.55;;;13.50;99.90;;;;;;5003863;28;20045;-45
2022/07/05 02:50:03;;;;;;;6.65;3.67;;;13.50;99.90;;;;;;5001761;28;20031;-50
2022/07/05 02:52:29;;;;;;;5.25;3.13;;;13.60;99.90;;;;;;4997856;28;20502;-47
2022/07/05 02:54:54;;;;;;;4.20;3.03;;;13.60;99.90;;;;;;5006230;28;20048;-44
2022/07/05 02:57:20;;;;;;;5.80;2.85;;;13.60;99.90;;;;;;5006441;28;20152;-48
2022/07/05 02:59:46;;;;;;;5.25;3.47;;;13.60;99.90;;;;;;5007889;28;20553;-46
2022/07/05 03:02:11;;;;;;;5.55;3.20;;;13.70;99.90;;;;;;5003032;28;20141;-47
2022/07/05 03:04:37;;;;;;;4.65;3.22;;;13.60;99.90;;;;;;5000239;28;20124;-44
2022/07/05 03:07:03;;;;;;;6.95;3.35;;;13.50;99.90;;;;;;5005763;28;20045;-45
2022/07/05 03:09:28;;;;;;;5.93;3.85;;;13.50;99.90;;;;;;5007865;28;20046;-46
2022/07/05 03:11:54;;;;;;;4.55;3.30;;;13.50;99.90;;;;;;5002718;28;20038;-43
2022/07/05 03:14:20;;;;;;;5.38;3.40;;;13.40;99.90;;;;;;5004331;28;20034;-43
2022/07/05 03:16:45;;;;;;;4.70;3.40;;;13.40;99.90;;;;;;4999101;28;20483;-44
2022/07/05 03:19:11;;;;;;;8.63;4.55;;;13.30;99.90;;;;;;5004463;28;20471;-45
2022/07/05 03:21:37;;;;;;;5.32;3.72;;;13.20;99.90;;;;;;5021423;28;20115;-45
2022/07/05 03:24:03;;;;;;;5.20;3.60;;;13.20;99.90;;;;;;5004718;28;20175;-46
2022/07/05 03:26:29;;;;;;;5.20;3.40;;;13.20;99.90;;;;;;5005846;28;20553;-44
2022/07/05 03:28:55;;;;;;;5.50;3.35;;;13.10;99.90;;;;;;5003112;28;20084;-45
2022/07/05 03:31:20;;;;;;;5.65;2.97;;;13.20;99.90;;;;;;5001264;28;20444;-48
2022/07/05 03:33:46;;;;;;;5.45;3.92;;;13.20;99.90;;;;;;5000086;28;20128;-46
2022/07/05 03:36:12;;;;;;;5.80;3.92;;;13.20;99.90;;;;;;5004405;28;20124;-45
2022/07/05 03:38:37;;;;;;;7.65;4.13;;;13.30;99.90;;;;;;5005387;28;20048;-45
2022/07/05 03:41:03;;;;;;;5.95;4.07;;;13.30;99.90;;;;;;5005039;28;20034;-44
2022/07/05 03:43:29;;;;;;;7.25;4.25;;;13.30;99.90;;;;;;5002671;28;20038;-46
2022/07/05 03:45:55;;;;;;;5.93;4.05;;;13.30;99.90;;;;;;4997603;28;20472;-44
2022/07/05 03:48:21;;;;;;;5.18;3.50;;;13.30;99.90;;;;;;5004496;28;20555;-46
2022/07/05 03:50:47;;;;;;;6.90;3.92;;;13.30;99.90;;;;;;5002133;28;20058;-45
2022/07/05 03:53:12;;;;;;;5.38;2.92;;;13.40;99.90;;;;;;5003821;28;20045;-45
2022/07/05 03:55:38;;;;;;;5.88;3.45;;;13.40;99.90;;;;;;5002168;28;20088;-44
2022/07/05 03:58:04;;;;;;;5.80;4.10;;;13.50;99.90;;;;;;5005846;28;20522;-45
2022/07/05 04:00:29;;;;;;;6.18;3.72;;;13.60;99.90;;;;;;5000263;28;20112;-43
2022/07/05 04:02:55;;;;;;;6.32;4.05;;;13.60;99.90;;;;;;5000624;28;20058;-44
2022/07/05 04:05:21;;;;;;;6.05;3.25;;;13.60;99.90;;;;;;5002782;28;20077;-49
2022/07/05 04:07:51;;;;;;;4.80;3.10;;;13.60;99.90;;;;;;5003043;28;20049;-46
2022/07/05 04:10:17;;;;;;;6.63;4.20;;;13.60;99.90;;;;;;5003391;28;20038;-45
2022/07/05 04:12:43;;;;;;;4.85;3.78;;;13.70;99.90;;;;;;5004495;28;20092;-45
2022/07/05 04:15:09;;;;;;;5.18;3.67;;;13.70;99.90;;;;;;4999704;28;20096;-48
2022/07/05 04:17:35;;;;;;;7.93;3.95;;;13.70;99.90;;;;;;5004269;28;20065;-46
2022/07/05 04:20:01;;;;;;;5.75;4.20;;;13.80;99.90;;;;;;5005135;28;20446;-46
2022/07/05 04:22:26;;;;;;;8.23;4.55;;;13.80;99.90;;;;;;5002704;28;20037;-45
2022/07/05 04:27:36;;;;;;;6.15;3.83;;;13.90;99.90;;;;;;5004035;28;20045;-47
2022/07/05 04:30:02;;;;;;;7.32;4.28;;;14.00;99.90;;;;;;5002685;28;20056;-44
2022/07/05 04:32:28;;;;;;;8.05;3.97;;;14.00;99.90;;;;;;5006090;28;20096;-44
2022/07/05 04:34:53;;;;;;;5.57;3.45;;;14.00;99.90;;;;;;5006223;28;20069;-45
2022/07/05 04:37:19;;;;;;;7.47;4.20;;;14.10;99.90;;;;;;5000821;28;20046;-47
2022/07/05 04:39:45;;;;;;;6.53;3.33;;;14.10;99.90;;;;;;5001656;28;20041;-47
2022/07/05 04:42:10;;;;;;;4.78;3.55;;;14.20;99.90;;;;;;5003969;28;20041;-45
2022/07/05 04:44:36;;;;;;;7.82;4.18;;;14.20;99.90;;;;;;5001431;28;20046;-44
2022/07/05 04:47:02;;;;;;;5.85;3.45;;;14.20;99.90;;;;;;5001219;28;20365;-44
2022/07/05 04:49:27;;;;;;;5.95;4.40;;;14.30;99.90;;;;;;5003792;28;20115;-44
2022/07/05 04:51:53;;;;;;;6.90;4.75;;;14.40;99.90;;;;;;4999013;28;20042;-44
2022/07/05 04:54:19;;;;;;;10.38;4.20;;;14.40;99.90;;;;;;4998971;28;20132;-44
2022/07/05 04:56:44;;;;;;;8.68;4.38;;;14.40;99.90;;;;;;5003722;28;20046;-45
2022/07/05 04:59:10;;;;;;;6.78;4.13;;;14.40;99.90;;;;;;5019013;28;20478;-43
2022/07/05 05:01:35;;;;;;;5.30;3.95;;;14.50;99.90;;;;;;5002886;28;20387;-45
2022/07/05 05:04:01;;;;;;;6.57;4.00;;;14.60;99.90;;;;;;5001183;28;20368;-42
2022/07/05 05:06:27;;;;;;;9.75;4.60;;;14.70;99.90;;;;;;4994625;28;20049;-44
2022/07/05 05:08:52;;;;;;;7.65;4.50;;;14.70;99.90;;;;;;5005373;28;20080;-48
2022/07/05 05:11:18;;;;;;;6.25;4.68;;;14.80;99.90;;;;;;5001347;28;20046;-48
2022/07/05 05:13:46;;;;;;;6.80;4.18;;;14.80;99.90;;;;;;4999676;28;20104;-44
2022/07/05 05:16:12;;;;;;;6.45;4.50;;;14.90;99.90;;;;;;5000259;28;20440;-43
2022/07/05 05:18:38;;;;;;;6.50;4.25;;;14.90;99.90;;;;;;5006012;28;20669;-46
2022/07/05 05:21:04;;;;;;;6.80;4.00;;;15.00;99.90;;;;;;5005021;28;20097;-44
2022/07/05 05:23:29;;;;;;;9.00;4.95;;;15.00;99.90;;;;;;5002805;28;20074;-45
2022/07/05 05:25:55;;;;;;;7.53;4.75;;;15.10;99.90;;;;;;5002450;28;20049;-43
2022/07/05 05:28:21;;;;;;;8.30;4.72;;;15.10;99.90;;;;;;5001051;28;20116;-47
2022/07/05 05:30:47;;;;;;;8.07;5.30;;;15.10;99.90;;;;;;4998144;28;20479;-43
2022/07/05 05:33:12;;;;;;;7.75;4.32;;;15.20;99.90;;;;;;5001402;28;20046;-44
2022/07/05 05:35:38;;;;;;;6.97;4.35;;;15.30;99.90;;;;;;5003875;28;20037;-44
2022/07/05 05:38:04;;;;;;;7.85;4.15;;;15.40;99.90;;;;;;4999886;28;20339;-44
2022/07/05 05:40:30;;;;;;;8.60;4.82;;;15.50;99.90;;;;;;5001597;28;20054;-46
2022/07/05 05:42:56;;;;;;;7.80;4.63;;;15.60;99.90;;;;;;4997042;28;20061;-45
2022/07/05 05:45:22;;;;;;;6.63;4.03;;;15.70;99.90;;;;;;5001217;28;20134;-48
2022/07/05 05:47:49;;;;;;;7.43;3.90;;;15.80;99.90;;;;;;5003657;28;20045;-43
2022/07/05 05:50:23;;;;;;;8.38;4.40;;;15.90;99.90;;;;;;5002956;28;20045;-43
2022/07/05 05:52:49;;;;;;;6.97;4.05;;;15.90;99.90;;;;;;4996195;28;20038;-43
2022/07/05 05:55:16;;;;;;;6.85;3.50;;;15.90;99.90;;;;;;5002383;28;20160;-43
2022/07/05 05:57:42;;;;;;;7.00;3.75;;;15.90;99.90;;;;;;5005611;28;20053;-43
2022/07/05 06:00:08;;;;;;;10.60;4.82;;;16.00;99.90;;;;;;5001553;28;20050;-43
2022/07/05 06:02:34;;;;;;;4.00;2.78;;;16.00;99.90;;;;;;5001165;28;20511;-46
2022/07/05 06:05:00;;;;;;;5.35;3.50;;;16.20;99.90;;;;;;5001425;28;20053;-43
2022/07/05 06:07:26;;;;;;;5.95;3.42;;;16.20;99.90;;;;;;4996051;28;20360;-43
2022/07/05 06:09:51;;;;;;;8.90;3.53;;;16.30;99.90;;;;;;5003909;28;20034;-43
2022/07/05 06:12:17;;;;;;;6.40;3.20;;;16.40;99.90;;;;;;5002756;28;20478;-44
2022/07/05 06:14:43;;;;;;;4.03;3.10;;;16.50;99.90;;;;;;5001182;28;20053;-45
2022/07/05 06:17:08;;;;;;;4.57;2.70;;;16.60;99.90;;;;;;5002575;28;20042;-43
2022/07/05 06:19:34;;;;;;;4.13;2.65;;;16.70;99.90;;;;;;5002714;28;20066;-48
2022/07/05 06:22:00;;;;;;;5.63;1.92;;;16.80;99.90;;;;;;5007875;28;20041;-42
2022/07/05 06:24:25;;;;;;;4.00;1.55;;;16.90;99.90;;;;;;5008428;28;20208;-42
2022/07/05 06:26:51;;;;;;;4.20;1.55;;;17.10;99.90;;;;;;5004483;28;20482;-42
2022/07/05 06:29:16;;;;;;;6.32;2.80;;;17.30;99.90;;;;;;5006629;28;20557;-43
2022/07/05 06:31:42;;;;;;;4.45;1.60;;;17.40;99.90;;;;;;5009857;28;20724;-42
2022/07/05 06:34:08;;;;;;;3.00;0.95;;;17.50;99.90;;;;;;5007804;28;20128;-43
2022/07/05 06:36:33;;;;;;;3.30;0.80;;;17.60;99.90;;;;;;5007251;28;20143;-45
2022/07/05 06:38:59;;;;;;;4.15;0.60;;;17.70;99.90;;;;;;5022079;28;20463;-43
2022/07/05 06:41:25;;;;;;;2.00;0.70;;;17.80;99.90;;;;;;5006358;28;20115;-44
2022/07/05 06:43:50;;;;;;;2.45;0.57;;;17.80;99.90;;;;;;5008962;28;20041;-44
2022/07/05 06:46:16;;;;;;;2.67;0.68;;;17.90;99.90;;;;;;5006828;28;20038;-44
2022/07/05 06:48:42;;;;;;;1.77;0.50;;;18.00;99.90;;;;;;5003701;28;20035;-43
2022/07/05 06:51:07;;;;;;;2.95;0.70;;;18.00;99.90;;;;;;5009847;28;20038;-43
2022/07/05 06:53:33;;;;;;;0.85;0.50;;;18.20;99.60;;;;;;5004083;28;20099;-44
2022/07/05 06:55:59;;;;;;;1.83;0.75;;;18.30;99.30;;;;;;5008724;28;20490;-44
2022/07/05 06:58:24;;;;;;;1.48;0.52;;;18.40;98.80;;;;;;5009117;28;20789;-43
2022/07/05 07:00:50;;;;;;;3.63;0.70;;;18.40;99.00;;;;;;5010158;28;20152;-43
2022/07/05 07:03:16;;;;;;;1.83;0.60;;;18.40;98.20;;;;;;5009762;28;20113;-44
2022/07/05 07:05:42;;;;;;;2.38;0.70;;;18.50;98.10;;;;;;5005564;28;20045;-44
2022/07/05 07:10:52;;;;;;;2.63;0.70;;;18.60;97.10;;;;;;5006480;28;21108;-42
2022/07/05 07:13:19;;;;;;;0.90;0.50;;;18.50;96.70;;;;;;5001253;28;20041;-43
2022/07/05 07:15:47;;;;;;;3.05;0.63;;;18.50;96.40;;;;;;5003250;28;20446;-44
2022/07/05 07:18:13;;;;;;;1.70;0.50;;;18.50;96.80;;;;;;5002332;28;20539;-45
2022/07/05 07:20:39;;;;;;;1.77;0.38;;;18.40;97.00;;;;;;5002197;28;20478;-42
2022/07/05 07:23:05;;;;;;;1.45;0.40;;;18.40;96.70;;;;;;5023938;28;20038;-43
2022/07/05 07:25:30;;;;;;;1.40;0.50;;;18.30;96.50;;;;;;5009233;28;20511;-41
2022/07/05 07:27:56;;;;;;;3.28;0.50;;;18.40;96.70;;;;;;5003146;28;20384;-42
2022/07/05 07:30:25;;;;;;;1.20;0.40;;;18.40;96.40;;;;;;5008078;28;20120;-42
2022/07/05 07:32:50;;;;;;;4.65;0.50;;;18.50;95.80;;;;;;5006998;28;20038;-43
2022/07/05 07:35:16;;;;;;;2.30;0.50;;;18.60;95.10;;;;;;5001535;28;20042;-45
2022/07/05 07:37:42;;;;;;;1.33;0.60;;;18.70;94.20;;;;;;5005024;28;20133;-43
2022/07/05 07:40:09;;;;;;;3.63;0.40;;;18.80;93.70;;;;;;5007288;28;20124;-42
2022/07/05 07:42:34;;;;;;;3.13;0.40;;;18.90;93.80;;;;;;5006414;28;20045;-43
2022/07/05 07:45:03;;;;;;;1.90;0.40;;;19.00;93.40;;;;;;5005850;28;20460;-43
2022/07/05 07:47:33;;;;;;;2.17;0.40;;;19.20;93.20;;;;;;5004706;28;20040;-43
2022/07/05 07:49:59;;;;;;;3.67;0.70;;;19.40;93.30;;;;;;5006432;28;20129;-43
2022/07/05 07:52:25;;;;;;;1.27;0.60;;;19.40;92.50;;;;;;5005680;28;20038;-44
2022/07/05 07:54:51;;;;;;;4.68;0.60;;;19.40;91.50;;;;;;5002447;28;20122;-44
2022/07/05 07:57:17;;;;;;;1.33;0.40;;;19.30;91.30;;;;;;5003763;28;20046;-45
2022/07/05 07:59:42;;;;;;;2.10;0.40;;;19.10;91.20;;;;;;5006879;28;20056;-41
2022/07/05 08:02:08;;;;;;;2.90;0.60;;;19.00;91.30;;;;;;4999234;28;20080;-42
2022/07/05 08:04:34;;;;;;;4.47;0.40;;;18.90;91.60;;;;;;5005235;28;20384;-42
2022/07/05 08:07:00;;;;;;;3.35;0.40;;;18.90;92.00;;;;;;5005973;28;20133;-43
2022/07/05 08:09:25;;;;;;;2.17;0.40;;;19.00;91.50;;;;;;5006757;28;20045;-45
2022/07/05 08:11:51;;;;;;;3.58;0.45;;;19.20;91.40;;;;;;5003140;28;20034;-42
2022/07/05 08:14:18;;;;;;;3.25;0.50;;;19.30;91.30;;;;;;5004143;28;20038;-42
2022/07/05 08:16:47;;;;;;;2.20;0.50;;;19.50;90.60;;;;;;5007401;28;20065;-42
2022/07/05 08:21:57;;;;;;;4.25;0.57;;;19.60;89.00;;;;;;5002787;28;20107;-42
2022/07/05 08:24:23;;;;;;;1.60;0.40;;;19.50;89.40;;;;;;5004031;28;20038;-46
2022/07/05 08:26:49;;;;;;;2.50;0.45;;;19.30;88.00;;;;;;5000053;28;20132;-42
2022/07/05 08:29:15;;;;;;;2.78;0.47;;;19.30;87.30;;;;;;5006790;28;20121;-43
2022/07/05 08:31:44;;;;;;;3.72;0.57;;;19.30;87.20;;;;;;5005017;28;20447;-43
2022/07/05 08:34:10;;;;;;;4.03;0.55;;;19.50;86.70;;;;;;5005743;28;20061;-43
2022/07/05 08:36:36;;;;;;;4.07;0.40;;;19.60;86.70;;;;;;5002985;28;20496;-43
2022/07/05 08:39:03;;;;;;;4.07;0.32;;;19.80;86.30;;;;;;5004911;28;20066;-43
2022/07/05 08:41:29;;;;;;;2.40;0.45;;;19.80;84.80;;;;;;4999331;28;20034;-43
2022/07/05 08:43:57;;;;;;;2.22;0.30;;;19.60;84.20;;;;;;5002963;28;20038;-43
2022/07/05 08:46:25;;;;;;;1.38;0.38;;;19.60;83.90;;;;;;5005711;28;20555;-45
2022/07/05 08:48:51;;;;;;;2.40;0.40;;;19.80;83.80;;;;;;5003126;28;20085;-43
2022/07/05 08:51:23;;;;;;;1.13;0.40;;;19.90;83.10;;;;;;5005104;28;20119;-43
2022/07/05 08:53:50;;;;;;;;;;;20.00;81.50;;;;;;4998677;28;20046;-45
2022/07/05 08:56:17;;;;;;;3.25;0.52;;;20.10;80.80;;;;;;4999221;28;19925;-43
2022/07/05 08:58:43;;;;;;;8.20;0.60;;;20.00;79.70;;;;;;5002271;28;20042;-43
2022/07/05 09:01:10;;;;;;;3.17;0.40;;;19.80;79.40;;;;;;5004411;28;20050;-42
2022/07/05 09:03:38;;;;;;;2.15;0.65;;;19.70;79.50;;;;;;5003026;28;20050;-42
2022/07/05 09:06:07;;;;;;;2.80;0.40;;;19.80;79.20;;;;;;5003217;28;20049;-42
2022/07/05 09:08:39;;;;;;;2.50;0.47;;;20.00;78.70;;;;;;5008962;28;20506;-42
2022/07/05 09:11:09;;;;;;;4.00;0.53;;;20.20;80.00;;;;;;5007075;28;20136;-46
2022/07/05 09:13:37;;;;;;;5.03;0.40;;;20.40;78.50;;;;;;4997189;28;20034;-43
2022/07/05 09:16:03;;;;;;;3.83;0.70;;;20.70;76.40;;;;;;4998706;28;20041;-44
2022/07/05 09:18:50;;;;;;;2.25;0.43;;;20.70;74.20;;;;;;5004898;28;20081;-43
2022/07/05 09:21:20;;;;;;;2.42;0.40;;;20.60;72.00;;;;;;5018544;28;20103;-42
2022/07/05 09:24:02;;;;;;;3.45;0.38;;;20.50;73.40;;;;;;5005745;28;20502;-46
2022/07/05 09:26:39;;;;;;;1.85;0.40;;;20.40;71.20;;;;;;5003855;28;20053;-45
2022/07/05 09:29:13;;;;;;;4.63;0.50;;;20.40;71.90;;;;;;5004138;28;20073;-42
2022/07/05 09:31:41;;;;;;;8.23;0.65;;;20.50;74.70;;;;;;5005976;28;20034;-42
2022/07/05 09:34:11;;;;;;;3.75;0.60;;;20.60;74.10;;;;;;5004971;28;20033;-45
2022/07/05 09:36:58;;;;;;;3.78;0.80;;;20.80;72.10;;;;;;5003906;28;20161;-43
2022/07/05 09:39:30;;;;;;;3.67;0.60;;;21.00;72.00;;;;;;5005926;28;20514;-44
2022/07/05 09:42:23;;;;;;;1.67;0.57;;;21.10;69.50;;;;;;5003847;28;20367;-44
2022/07/05 09:44:57;;;;;;;2.50;0.60;;;21.10;70.80;;;;;;4993680;28;20046;-45
2022/07/05 09:47:24;;;;;;;2.80;0.55;;;20.90;69.90;;;;;;5001254;28;20029;-43
2022/07/05 09:49:52;;;;;;;3.45;0.52;;;20.70;71.00;;;;;;5005179;28;20403;-44
2022/07/05 09:52:28;;;;;;;4.72;0.90;;;20.60;70.50;;;;;;5002972;28;20037;-43
2022/07/05 09:55:16;;;;;;;2.70;0.70;;;20.60;70.80;;;;;;5008677;28;20395;-43
2022/07/05 09:57:42;;;;;;;3.45;0.75;;;20.80;71.80;;;;;;5009495;28;20045;-43
2022/07/05 10:00:14;;;;;;;3.33;0.70;;;20.90;71.20;;;;;;5008046;28;21598;-44
2022/07/05 10:02:40;;;;;;;4.68;0.80;;;20.90;70.80;;;;;;5005399;28;20050;-42
2022/07/05 10:05:14;;;;;;;5.25;0.85;;;21.00;69.80;;;;;;5006072;28;20536;-43
2022/07/05 10:07:42;;;;;;;4.40;0.80;;;21.10;69.70;;;;;;5008028;28;20034;-43
2022/07/05 10:10:14;;;;;;;1.85;0.40;;;21.10;70.10;;;;;;5004759;28;20467;-44
2022/07/05 10:12:42;;;;;;;2.75;0.50;;;21.00;69.50;;;;;;5007552;28;20038;-42
2022/07/05 10:15:11;;;;;;;4.00;0.50;;;21.00;68.70;;;;;;5010254;28;20061;-47
2022/07/05 10:17:41;;;;;;;2.78;0.52;;;20.80;68.90;;;;;;5008157;28;20047;-43
2022/07/05 10:20:17;;;;;;;2.85;0.63;;;20.60;68.80;;;;;;5006379;28;20046;-42
2022/07/05 10:22:44;;;;;;;3.85;0.60;;;20.40;70.10;;;;;;5002787;28;20042;-42
2022/07/05 10:25:10;;;;;;;3.83;0.60;;;20.40;71.80;;;;;;5007953;28;20050;-42
2022/07/05 10:27:37;;;;;;;0.82;0.52;;;20.50;72.10;;;;;;5010686;28;20073;-43
2022/07/05 10:30:04;;;;;;;1.58;0.50;;;20.50;71.70;;;;;;5003704;28;20156;-42
2022/07/05 10:32:30;;;;;;;2.50;0.57;;;20.50;71.20;;;;;;5009698;28;20125;-41
2022/07/05 10:34:58;;;;;;;3.70;0.70;;;20.50;71.40;;;;;;5006428;28;20139;-45
2022/07/05 10:37:30;;;;;;;4.55;0.73;;;20.50;72.10;;;;;;5001191;28;20107;-42
2022/07/05 10:40:01;;;;;;;4.15;0.60;;;20.60;72.40;;;;;;5003788;28;20029;-41
2022/07/05 10:43:06;;;;;;;3.00;0.70;;;20.60;72.90;;;;;;5005108;28;20046;-44
2022/07/05 10:45:34;;;;;;;1.60;0.40;;;20.70;74.20;;;;;;5008505;28;20168;-42
2022/07/05 10:48:09;;;;;;;3.13;0.50;;;20.70;71.80;;;;;;5000634;28;20041;-43
2022/07/05 10:51:04;;;;;;;4.38;0.80;;;20.80;73.90;;;;;;5006543;28;20038;-43
2022/07/05 10:53:56;;;;;;;2.38;0.47;;;20.80;74.70;;;;;;5002633;28;20060;-43
2022/07/05 10:56:21;;;;;;;2.47;0.63;;;20.70;76.00;;;;;;4994966;28;20054;-42
2022/07/05 10:58:48;;;;;;;3.03;0.50;;;20.60;76.30;;;;;;5004409;28;20554;-42
2022/07/05 11:01:19;;;;;;;3.53;0.70;;;20.40;77.30;;;;;;5008210;28;20038;-41
2022/07/05 11:03:50;;;;;;;2.40;0.50;;;20.30;77.50;;;;;;5002409;28;20479;-43
2022/07/05 11:06:29;;;;;;;3.10;0.60;;;20.20;78.80;;;;;;5005566;28;20041;-43
2022/07/05 11:08:57;;;;;;;1.90;0.57;;;20.40;79.10;;;;;;5005602;28;20092;-42
2022/07/05 11:11:25;;;;;;;3.28;0.57;;;20.50;77.30;;;;;;5005855;28;20073;-42
2022/07/05 11:13:53;;;;;;;2.30;0.50;;;20.50;78.70;;;;;;5000077;28;20081;-43
2022/07/05 11:16:28;;;;;;;4.05;0.70;;;20.50;78.60;;;;;;5001671;28;20045;-42
2022/07/05 11:19:21;;;;;;;5.35;0.80;;;20.60;77.30;;;;;;5007147;28;20041;-42
2022/07/05 11:22:04;;;;;;;4.10;0.75;;;20.80;76.40;;;;;;5008965;28;20518;-41
2022/07/05 11:24:32;;;;;;;1.42;0.60;;;21.10;73.50;;;;;;5003410;28;20038;-42
2022/07/05 11:26:59;;;;;;;5.75;0.90;;;21.20;74.50;;;;;;5005796;28;20088;-42
2022/07/05 11:29:43;;;;;;;2.50;0.70;;;21.30;73.10;;;;;;5007407;28;20038;-43
2022/07/05 11:32:14;;;;;;;4.20;0.77;;;21.40;72.10;;;;;;5007968;28;20128;-40
2022/07/05 11:34:41;;;;;;;2.13;0.68;;;21.60;72.10;;;;;;5005083;28;20140;-42
2022/07/05 11:37:28;;;;;;;3.13;0.70;;;21.80;70.40;;;;;;5005434;28;20121;-42
2022/07/05 11:40:11;;;;;;;1.67;0.47;;;22.00;72.00;;;;;;5003749;28;20049;-41
2022/07/05 11:42:45;;;;;;;2.47;0.77;;;22.20;68.80;;;;;;5002545;28;20664;-41
2022/07/05 11:45:11;;;;;;;3.58;0.68;;;22.10;67.10;;;;;;5003778;28;20556;-42
2022/07/05 11:47:37;;;;;;;3.53;0.60;;;21.90;66.50;;;;;;5004786;28;20465;-42
2022/07/05 11:50:04;;;;;;;3.13;0.63;;;21.90;66.10;;;;;;5003342;28;20106;-42
2022/07/05 11:52:33;;;;;;;2.70;0.30;;;22.00;63.70;;;;;;5004081;28;21927;-42
2022/07/05 11:55:01;;;;;;;3.45;0.60;;;22.10;63.80;;;;;;5006495;28;20060;-42
2022/07/05 11:57:26;;;;;;;2.15;0.63;;;21.90;59.00;;;;;;5006973;28;20183;-47
2022/07/05 11:59:52;;;;;;;4.22;0.65;;;21.80;59.30;;;;;;5008006;28;20132;-42
2022/07/05 12:02:19;;;;;;;3.35;0.40;;;21.80;58.80;;;;;;5010042;28;20111;-42
2022/07/05 12:04:50;;;;;;;3.40;0.30;;;21.90;58.40;;;;;;5015635;28;20077;-43
2022/07/05 12:07:29;;;;;;;3.25;0.40;;;22.00;57.10;;;;;;5000689;28;20106;-42
2022/07/05 12:13:06;;;;;;;1.20;0.30;;;22.10;53.90;;;;;;4905431;29;20040;-42
2022/07/05 12:15:33;;;;;;;0.63;0.20;;;22.00;55.90;;;;;;4891423;29;20592;-41
2022/07/05 12:18:03;;;;;;;1.95;0.25;;;22.10;55.90;;;;;;4954256;28;20058;-41
2022/07/05 12:20:32;;;;;;;5.50;0.50;;;22.20;55.10;;;;;;5002986;28;20100;-42
2022/07/05 12:23:01;;;;;;;3.53;0.50;;;22.30;53.40;;;;;;5005331;28;20041;-41
2022/07/05 12:25:28;;;;;;;2.95;0.52;;;22.30;52.80;;;;;;5008675;28;20622;-41
2022/07/05 12:27:56;;;;;;;2.20;0.40;;;22.30;52.60;;;;;;5008436;28;20471;-41
2022/07/05 12:30:22;;;;;;;1.83;0.30;;;22.40;53.40;;;;;;5008505;28;20475;-43
2022/07/05 12:33:03;;;;;;;1.92;0.40;;;22.50;51.30;;;;;;5004880;28;20159;-42
2022/07/05 12:35:40;;;;;;;1.50;0.32;;;22.60;50.70;;;;;;5003979;28;20057;-44
2022/07/05 12:38:14;;;;;;;2.10;0.50;;;22.60;50.70;;;;;;5004560;28;20045;-44
2022/07/05 12:40:42;;;;;;;1.33;0.30;;;22.70;50.00;;;;;;5004897;28;20069;-42
2022/07/05 12:43:10;;;;;;;1.75;0.30;;;22.70;49.70;;;;;;5006933;28;20046;-43
2022/07/05 12:45:38;;;;;;;1.25;0.20;;;22.70;49.10;;;;;;5004143;28;20042;-42
2022/07/05 12:48:05;;;;;;;1.90;0.30;;;22.70;49.40;;;;;;5003349;28;20041;-42
2022/07/05 12:50:46;;;;;;;2.22;0.50;;;22.70;49.90;;;;;;5003966;28;20404;-41
2022/07/05 12:58:51;;;;;;;1.15;0.43;;;22.80;49.00;;;;;;5001679;28;20159;-44
2022/07/05 13:01:25;;;;;;;1.98;0.47;;;22.80;49.90;;;;;;5001529;28;20155;-41
2022/07/05 13:04:11;;;;;;;1.50;0.30;;;22.90;50.90;;;;;;5002559;28;20066;-42
2022/07/05 13:06:44;;;;;;;2.13;0.20;;;22.80;48.40;;;;;;5004329;28;20053;-42
2022/07/05 13:09:10;;;;;;;1.98;0.30;;;22.50;50.70;;;;;;5000810;28;20050;-43